createdAt,value
2022-11-22T00:00:16.026Z,18.10
2022-11-22T00:02:18.128Z,18.10
2022-11-22T00:04:20.110Z,18.10
2022-11-22T00:06:22.199Z,18.10
2022-11-22T00:08:24.239Z,18.20
2022-11-22T00:10:26.521Z,18.10
2022-11-22T00:12:28.413Z,18.10
2022-11-22T00:14:30.576Z,18.10
2022-11-22T00:16:32.750Z,18.10
2022-11-22T00:18:34.799Z,18.10
2022-11-22T00:20:37.051Z,18.10
2022-11-22T00:22:44.277Z,18.00
2022-11-22T00:24:46.897Z,18.10
2022-11-22T00:26:48.998Z,18.20
2022-11-22T00:28:50.977Z,18.10
2022-11-22T00:30:52.991Z,18.10
2022-11-22T00:32:55.004Z,18.10
2022-11-22T00:34:57.055Z,18.10
2022-11-22T00:36:59.171Z,18.10
2022-11-22T00:39:01.222Z,18.00
2022-11-22T00:41:03.100Z,18.10
2022-11-22T00:43:05.176Z,18.10
2022-11-22T00:45:07.532Z,18.10
2022-11-22T00:47:09.504Z,18.10
2022-11-22T00:49:11.502Z,18.10
2022-11-22T00:51:13.730Z,18.10
2022-11-22T00:53:15.722Z,18.10
2022-11-22T00:55:17.964Z,18.20
2022-11-22T00:57:19.950Z,18.10
2022-11-22T00:59:21.926Z,18.10
2022-11-22T01:01:24.029Z,18.10
2022-11-22T01:03:26.336Z,18.10
2022-11-22T01:05:28.198Z,18.10
2022-11-22T01:07:30.489Z,18.10
2022-11-22T01:09:32.736Z,18.10
2022-11-22T01:11:34.974Z,18.10
2022-11-22T01:13:36.913Z,18.10
2022-11-22T01:15:39.395Z,18.10
2022-11-22T01:17:41.454Z,18.10
2022-11-22T01:19:43.427Z,18.00
2022-11-22T01:21:58.561Z,18.00
2022-11-22T01:24:00.961Z,18.10
2022-11-22T01:26:03.035Z,18.00
2022-11-22T01:28:05.147Z,18.00
2022-11-22T01:30:07.485Z,18.00
2022-11-22T01:32:09.485Z,18.10
2022-11-22T01:34:11.422Z,18.00
2022-11-22T01:36:13.428Z,18.10
2022-11-22T01:38:15.347Z,18.10
2022-11-22T01:40:17.531Z,18.10
2022-11-22T01:42:19.612Z,17.90
2022-11-22T01:44:24.317Z,18.00
2022-11-22T01:46:32.685Z,18.00
2022-11-22T01:48:37.669Z,18.00
2022-11-22T01:50:41.215Z,18.10
2022-11-22T01:52:43.343Z,18.20
2022-11-22T01:54:47.718Z,18.10
2022-11-22T01:56:54.990Z,18.10
2022-11-22T01:58:58.710Z,18.10
2022-11-22T02:01:01.633Z,18.10
2022-11-22T02:03:04.682Z,18.10
2022-11-22T02:05:08.746Z,18.00
2022-11-22T02:07:13.810Z,18.10
2022-11-22T02:09:16.642Z,18.20
2022-11-22T02:11:20.327Z,18.00
2022-11-22T02:13:23.698Z,18.00
2022-11-22T02:15:25.829Z,18.10
2022-11-22T02:17:27.914Z,18.00
2022-11-22T02:19:46.711Z,18.10
2022-11-22T02:21:51.778Z,18.10
2022-11-22T02:24:01.011Z,18.10
2022-11-22T02:26:04.608Z,18.10
2022-11-22T02:28:07.180Z,18.10
2022-11-22T02:30:10.438Z,18.00
2022-11-22T02:32:12.519Z,18.00
2022-11-22T02:34:14.618Z,18.10
2022-11-22T02:36:16.589Z,18.00
2022-11-22T02:38:22.644Z,18.10
2022-11-22T02:40:25.292Z,18.10
2022-11-22T02:42:28.975Z,18.10
2022-11-22T02:44:30.829Z,18.10
2022-11-22T02:46:32.867Z,18.00
2022-11-22T02:48:34.845Z,18.00
2022-11-22T02:50:36.681Z,18.00
2022-11-22T02:52:38.398Z,18.00
2022-11-22T02:54:40.250Z,18.00
2022-11-22T02:56:42.842Z,18.10
2022-11-22T02:58:44.900Z,18.10
2022-11-22T03:00:46.714Z,18.00
2022-11-22T03:02:48.599Z,18.10
2022-11-22T03:04:50.306Z,18.10
2022-11-22T03:06:55.973Z,18.00
2022-11-22T03:08:57.830Z,18.00
2022-11-22T03:10:59.741Z,18.00
2022-11-22T03:13:01.618Z,18.10
2022-11-22T03:15:03.588Z,18.00
2022-11-22T03:17:05.324Z,18.10
2022-11-22T03:19:07.164Z,18.00
2022-11-22T03:21:09.609Z,18.00
2022-11-22T03:23:11.388Z,18.00
2022-11-22T03:25:13.130Z,18.00
2022-11-22T03:27:16.077Z,18.00
2022-11-22T03:29:19.901Z,18.00
2022-11-22T03:31:22.053Z,18.00
2022-11-22T03:33:23.780Z,18.00
2022-11-22T03:35:25.612Z,18.00
2022-11-22T03:37:27.324Z,18.00
2022-11-22T03:39:29.576Z,18.00
2022-11-22T03:41:31.500Z,18.00
2022-11-22T03:43:33.439Z,18.00
2022-11-22T03:45:35.163Z,18.00
2022-11-22T03:47:37.039Z,18.00
2022-11-22T03:49:38.913Z,18.00
2022-11-22T03:51:40.721Z,18.00
2022-11-22T03:53:42.573Z,18.00
2022-11-22T03:55:44.400Z,18.00
2022-11-22T03:57:46.187Z,18.00
2022-11-22T03:59:48.022Z,18.00
2022-11-22T04:01:50.042Z,18.00
2022-11-22T04:03:51.916Z,18.00
2022-11-22T04:05:53.729Z,18.00
2022-11-22T04:07:56.340Z,18.00
2022-11-22T04:09:58.099Z,18.00
2022-11-22T04:11:59.888Z,18.00
2022-11-22T04:14:01.639Z,18.00
2022-11-22T04:16:03.476Z,18.00
2022-11-22T04:18:05.328Z,18.00
2022-11-22T04:20:08.657Z,18.00
2022-11-22T04:22:10.326Z,18.00
2022-11-22T04:24:12.357Z,18.00
2022-11-22T04:26:14.299Z,18.00
2022-11-22T04:28:17.188Z,18.00
2022-11-22T04:30:20.947Z,18.00
2022-11-22T04:32:22.891Z,18.00
2022-11-22T04:34:24.598Z,18.00
2022-11-22T04:36:26.402Z,18.00
2022-11-22T04:38:28.152Z,18.00
2022-11-22T04:40:30.153Z,18.00
2022-11-22T04:42:31.851Z,18.00
2022-11-22T04:44:33.624Z,18.00
2022-11-22T04:46:35.310Z,18.00
2022-11-22T04:48:37.445Z,18.00
2022-11-22T04:50:40.247Z,18.00
2022-11-22T04:52:42.194Z,18.00
2022-11-22T04:54:43.914Z,18.00
2022-11-22T04:56:45.790Z,18.00
2022-11-22T04:58:47.506Z,18.00
2022-11-22T05:00:49.657Z,18.00
2022-11-22T05:02:51.425Z,18.00
2022-11-22T05:04:53.259Z,18.00
2022-11-22T05:06:54.979Z,18.00
2022-11-22T05:08:56.843Z,18.00
2022-11-22T05:10:58.594Z,18.00
2022-11-22T05:13:00.363Z,18.00
2022-11-22T05:15:02.121Z,18.00
2022-11-22T05:17:03.901Z,18.00
2022-11-22T05:19:05.608Z,18.00
2022-11-22T05:21:08.669Z,18.00
2022-11-22T05:23:10.486Z,18.00
2022-11-22T05:25:12.410Z,18.00
2022-11-22T05:27:14.180Z,18.00
2022-11-22T05:29:16.029Z,18.00
2022-11-22T05:31:18.930Z,18.00
2022-11-22T05:33:20.770Z,18.00
2022-11-22T05:35:22.490Z,18.00
2022-11-22T05:37:24.699Z,18.00
2022-11-22T05:39:26.573Z,18.00
2022-11-22T05:41:28.632Z,18.00
2022-11-22T05:43:30.393Z,18.00
2022-11-22T05:45:33.374Z,18.00
2022-11-22T05:47:35.880Z,18.00
2022-11-22T05:49:37.659Z,18.00
2022-11-22T05:51:39.390Z,18.00
2022-11-22T05:53:41.690Z,18.00
2022-11-22T05:55:43.371Z,17.90
2022-11-22T05:57:45.263Z,17.90
2022-11-22T05:59:47.005Z,17.90
2022-11-22T06:01:48.889Z,17.90
2022-11-22T06:03:51.179Z,17.90
2022-11-22T06:05:52.933Z,17.90
2022-11-22T06:07:57.030Z,17.90
2022-11-22T06:09:59.854Z,17.90
2022-11-22T06:12:01.591Z,17.90
2022-11-22T06:14:03.368Z,17.90
2022-11-22T06:16:05.969Z,17.90
2022-11-22T06:18:07.794Z,17.90
2022-11-22T06:20:09.695Z,18.00
2022-11-22T06:22:11.511Z,17.90
2022-11-22T06:24:13.246Z,17.90
2022-11-22T06:26:16.226Z,17.90
2022-11-22T06:28:17.970Z,17.90
2022-11-22T06:30:19.788Z,17.90
2022-11-22T06:32:21.561Z,17.90
2022-11-22T06:34:23.367Z,17.90
2022-11-22T06:36:26.260Z,17.90
2022-11-22T06:38:28.059Z,17.90
2022-11-22T06:40:29.789Z,17.90
2022-11-22T06:42:31.579Z,17.90
2022-11-22T06:44:33.276Z,17.90
2022-11-22T06:46:35.807Z,17.90
2022-11-22T06:48:38.592Z,17.90
2022-11-22T06:50:40.372Z,17.90
2022-11-22T06:52:42.206Z,17.90
2022-11-22T06:54:43.971Z,17.90
2022-11-22T06:56:45.727Z,17.90
2022-11-22T06:58:48.325Z,17.90
2022-11-22T07:00:50.064Z,17.90
2022-11-22T07:02:51.883Z,17.90
2022-11-22T07:05:17.672Z,17.90
2022-11-22T07:07:15.485Z,17.90
2022-11-22T07:09:17.295Z,17.90
2022-11-22T07:11:21.155Z,17.90
2022-11-22T07:13:22.927Z,17.90
2022-11-22T07:15:24.772Z,17.90
2022-11-22T07:17:26.540Z,17.90
2022-11-22T07:19:28.686Z,17.90
2022-11-22T07:21:30.683Z,17.90
2022-11-22T07:23:32.660Z,17.90
2022-11-22T07:25:34.404Z,17.90
2022-11-22T07:27:36.175Z,17.90
2022-11-22T07:29:37.937Z,17.90
2022-11-22T07:31:39.693Z,17.90
2022-11-22T07:33:42.096Z,17.90
2022-11-22T07:35:43.920Z,17.90
2022-11-22T07:37:46.516Z,17.90
2022-11-22T07:39:48.384Z,17.90
2022-11-22T07:41:50.142Z,17.90
2022-11-22T07:43:51.975Z,17.90
2022-11-22T07:45:53.680Z,17.90
2022-11-22T07:47:58.791Z,17.90
2022-11-22T07:50:00.587Z,17.90
2022-11-22T07:52:02.454Z,17.90
2022-11-22T07:54:04.492Z,17.90
2022-11-22T07:56:06.798Z,17.80
2022-11-22T07:58:08.552Z,17.20
2022-11-22T08:00:10.777Z,16.50
2022-11-22T08:02:12.715Z,16.40
2022-11-22T08:04:14.697Z,16.80
2022-11-22T08:06:16.623Z,17.10
2022-11-22T08:08:18.452Z,17.30
2022-11-22T08:10:20.904Z,17.40
2022-11-22T08:12:24.505Z,17.50
2022-11-22T08:14:26.360Z,17.60
2022-11-22T08:16:29.625Z,17.70
2022-11-22T08:18:31.424Z,17.70
2022-11-22T08:20:33.288Z,17.70
2022-11-22T08:22:35.641Z,17.70
2022-11-22T08:24:37.541Z,17.70
2022-11-22T08:26:39.292Z,17.70
2022-11-22T08:28:41.979Z,17.70
2022-11-22T08:30:43.769Z,17.70
2022-11-22T08:32:45.544Z,17.80
2022-11-22T08:34:47.585Z,17.80
2022-11-22T08:36:49.532Z,17.80
2022-11-22T08:38:51.263Z,17.80
2022-11-22T08:40:54.419Z,17.80
2022-11-22T08:42:56.186Z,17.80
2022-11-22T08:44:58.918Z,17.80
2022-11-22T08:47:00.654Z,17.90
2022-11-22T08:51:06.740Z,17.90
2022-11-22T08:53:08.525Z,17.90
2022-11-22T08:55:10.270Z,17.90
2022-11-22T08:57:12.102Z,17.90
2022-11-22T08:59:13.911Z,17.90
2022-11-22T09:01:16.955Z,17.90
2022-11-22T09:03:18.715Z,17.90
2022-11-22T09:05:20.544Z,17.90
2022-11-22T09:09:44.155Z,17.90
2022-11-22T09:11:46.203Z,17.90
2022-11-22T09:13:48.077Z,17.90
2022-11-22T09:15:49.820Z,17.90
2022-11-22T09:17:51.632Z,17.90
2022-11-22T09:19:53.337Z,17.90
2022-11-22T09:21:55.123Z,17.90
2022-11-22T09:23:56.843Z,17.90
2022-11-22T09:26:24.540Z,17.90
2022-11-22T09:28:26.927Z,17.90
2022-11-22T09:30:29.577Z,17.90
2022-11-22T09:34:52.546Z,18.00
2022-11-22T09:36:54.336Z,17.90
2022-11-22T09:38:56.291Z,17.90
2022-11-22T09:40:58.376Z,17.90
2022-11-22T09:43:00.078Z,17.90
2022-11-22T09:45:14.951Z,17.90
2022-11-22T09:47:16.663Z,17.90
2022-11-22T09:49:25.781Z,17.90
2022-11-22T09:51:31.614Z,17.90
2022-11-22T09:53:39.320Z,17.90
2022-11-22T09:55:47.990Z,17.80
2022-11-22T09:57:51.314Z,17.80
2022-11-22T10:00:03.143Z,17.80
2022-11-22T10:02:25.590Z,17.90
2022-11-22T10:04:35.025Z,17.90
2022-11-22T10:06:49.346Z,17.80
2022-11-22T10:08:57.049Z,17.60
2022-11-22T10:10:59.868Z,17.70
2022-11-22T10:13:15.207Z,17.80
2022-11-22T10:15:33.721Z,17.80
2022-11-22T10:17:35.423Z,17.90
2022-11-22T10:19:45.583Z,17.90
2022-11-22T10:21:47.306Z,17.90
2022-11-22T10:23:49.079Z,17.90
2022-11-22T10:25:53.644Z,17.50
2022-11-22T10:28:14.107Z,16.60
2022-11-22T10:30:17.603Z,15.90
2022-11-22T10:32:19.427Z,16.30
2022-11-22T10:34:33.491Z,16.80
2022-11-22T10:36:48.950Z,17.10
2022-11-22T10:38:50.720Z,17.30
2022-11-22T10:41:01.461Z,17.50
2022-11-22T10:43:09.388Z,17.50
2022-11-22T10:45:24.395Z,17.70
2022-11-22T10:47:47.249Z,17.70
2022-11-22T10:50:03.934Z,17.70
2022-11-22T10:52:14.904Z,17.80
2022-11-22T10:54:34.670Z,17.80
2022-11-22T10:57:14.823Z,17.80
2022-11-22T10:59:29.305Z,17.80
2022-11-22T11:01:54.213Z,17.80
2022-11-22T11:03:59.005Z,17.80
2022-11-22T11:13:24.860Z,17.80
2022-11-22T11:15:55.687Z,17.90
2022-11-22T11:18:09.384Z,17.90
2022-11-22T11:20:35.408Z,17.90
2022-11-22T11:25:36.968Z,17.80
2022-11-22T11:34:06.643Z,17.90
2022-11-22T11:57:50.911Z,18.00
2022-11-22T12:38:33.912Z,18.10
2022-11-22T12:49:21.469Z,18.10
2022-11-22T12:51:44.091Z,18.10
2022-11-22T12:53:47.569Z,18.10
2022-11-22T12:56:03.109Z,18.10
2022-11-22T12:58:13.089Z,18.10
2022-11-22T13:02:58.750Z,18.10
2022-11-22T13:05:17.252Z,18.10
2022-11-22T13:09:36.087Z,18.10
2022-11-22T13:11:41.479Z,18.10
2022-11-22T13:13:51.441Z,18.10
2022-11-22T13:20:46.206Z,18.10
2022-11-22T13:22:49.779Z,18.10
2022-11-22T13:25:32.868Z,18.20
2022-11-22T13:27:41.701Z,18.20
2022-11-22T13:29:49.641Z,18.20
2022-11-22T13:32:07.122Z,18.20
2022-11-22T13:34:29.376Z,18.10
2022-11-22T13:36:44.683Z,18.20
2022-11-22T13:44:00.608Z,18.20
2022-11-22T13:46:06.319Z,18.20
2022-11-22T13:48:14.776Z,18.10
2022-11-22T13:52:53.078Z,18.10
2022-11-22T13:55:04.202Z,18.20
2022-11-22T13:57:30.521Z,18.10
2022-11-22T14:02:53.430Z,18.10
2022-11-22T14:05:41.372Z,18.20
2022-11-22T14:07:51.105Z,18.10
2022-11-22T14:09:53.036Z,18.10
2022-11-22T14:12:21.537Z,18.00
2022-11-22T14:14:34.516Z,18.00
2022-11-22T14:16:48.394Z,18.00
2022-11-22T14:18:50.322Z,18.10
2022-11-22T14:20:54.913Z,18.00
2022-11-22T14:23:14.729Z,18.00
2022-11-22T14:25:35.091Z,18.10
2022-11-22T14:27:42.953Z,18.10
2022-11-22T14:29:47.152Z,18.20
2022-11-22T14:32:05.184Z,18.10
2022-11-22T14:34:24.265Z,18.20
2022-11-22T14:36:26.044Z,18.10
2022-11-22T14:38:32.058Z,18.10
2022-11-22T14:40:47.362Z,18.20
2022-11-22T14:42:50.907Z,18.10
2022-11-22T14:44:52.829Z,18.10
2022-11-22T14:47:01.516Z,18.00
2022-11-22T14:49:10.947Z,18.10
2022-11-22T14:51:31.930Z,18.10
2022-11-22T14:53:40.132Z,18.10
2022-11-22T14:55:42.364Z,18.10
2022-11-22T14:57:45.540Z,18.10
2022-11-22T15:00:02.425Z,18.10
2022-11-22T15:02:19.506Z,18.10
2022-11-22T15:09:13.164Z,18.10
2022-11-22T15:09:19.843Z,18.10
2022-11-22T15:10:02.682Z,18.10
2022-11-22T15:12:12.126Z,18.10
2022-11-22T15:14:33.868Z,18.10
2022-11-22T15:58:44.248Z,18.10
2022-11-22T16:00:46.218Z,18.10
2022-11-22T16:02:49.765Z,18.10
2022-11-22T16:06:05.455Z,18.10
2022-11-22T16:07:31.773Z,18.10
2022-11-22T16:09:34.724Z,18.10
2022-11-22T16:11:38.256Z,18.10
2022-11-22T16:13:40.106Z,18.10
2022-11-22T16:15:41.950Z,18.10
2022-11-22T16:17:49.333Z,18.10
2022-11-22T16:19:51.535Z,18.20
2022-11-22T16:21:56.304Z,18.20
2022-11-22T16:24:08.041Z,18.10
2022-11-22T16:26:12.663Z,18.20
2022-11-22T16:28:25.546Z,18.20
2022-11-22T16:30:27.366Z,18.20
2022-11-22T16:32:29.170Z,18.20
2022-11-22T16:34:30.920Z,18.20
2022-11-22T16:36:32.891Z,18.20
2022-11-22T16:38:34.635Z,18.20
2022-11-22T16:40:40.180Z,18.20
2022-11-22T16:42:42.254Z,18.20
2022-11-22T16:44:44.488Z,18.20
2022-11-22T16:46:46.473Z,18.20
2022-11-22T16:48:48.509Z,18.20
2022-11-22T16:50:55.519Z,18.20
2022-11-22T16:53:02.451Z,18.20
2022-11-22T16:55:04.922Z,18.20
2022-11-22T16:57:11.210Z,18.20
2022-11-22T16:59:13.015Z,17.70
2022-11-22T17:01:16.522Z,17.00
2022-11-22T17:03:19.957Z,16.60
2022-11-22T17:05:22.295Z,16.30
2022-11-22T17:07:24.209Z,16.20
2022-11-22T17:09:26.078Z,16.20
2022-11-22T17:11:31.783Z,16.60
2022-11-22T17:13:33.612Z,16.90
2022-11-22T17:15:35.623Z,17.30
2022-11-22T17:17:38.388Z,17.70
2022-11-22T17:19:55.645Z,17.90
2022-11-22T17:21:57.921Z,18.00
2022-11-22T17:24:00.756Z,17.80
2022-11-22T17:26:05.536Z,17.70
2022-11-22T17:28:07.329Z,17.60
2022-11-22T17:30:09.692Z,17.50
2022-11-22T17:32:12.155Z,17.50
2022-11-22T17:34:13.994Z,17.60
2022-11-22T17:36:18.708Z,17.50
2022-11-22T17:38:20.612Z,17.60
2022-11-22T17:40:22.381Z,17.60
2022-11-22T17:42:24.472Z,17.60
2022-11-22T17:44:26.217Z,17.60
2022-11-22T17:46:31.569Z,17.60
2022-11-22T17:48:33.278Z,17.70
2022-11-22T17:50:35.084Z,17.70
2022-11-22T17:52:36.938Z,17.70
2022-11-22T17:54:38.828Z,17.70
2022-11-22T17:56:40.888Z,17.70
2022-11-22T17:58:43.276Z,17.70
2022-11-22T18:00:45.223Z,17.70
2022-11-22T18:02:47.265Z,17.80
2022-11-22T18:04:49.118Z,17.80
2022-11-22T18:06:51.068Z,17.80
2022-11-22T18:08:52.869Z,17.80
2022-11-22T18:10:55.255Z,17.80
2022-11-22T18:13:19.579Z,17.80
2022-11-22T18:15:19.115Z,17.80
2022-11-22T18:17:21.080Z,17.80
2022-11-22T18:19:23.225Z,17.80
2022-11-22T18:21:25.486Z,17.80
2022-11-22T18:23:31.767Z,17.80
2022-11-22T18:25:33.535Z,17.80
2022-11-22T18:27:39.118Z,17.80
2022-11-22T18:29:43.797Z,17.80
2022-11-22T18:31:54.334Z,17.80
2022-11-22T18:33:56.355Z,17.80
2022-11-22T18:36:01.685Z,17.80
2022-11-22T18:38:03.917Z,17.80
2022-11-22T18:40:06.020Z,17.80
2022-11-22T18:42:12.584Z,17.80
2022-11-22T18:44:14.514Z,17.80
2022-11-22T18:46:16.259Z,17.80
2022-11-22T18:48:18.087Z,17.80
2022-11-22T18:50:19.794Z,17.80
2022-11-22T18:52:22.316Z,17.80
2022-11-22T18:54:24.051Z,17.80
2022-11-22T18:56:26.074Z,17.80
2022-11-22T18:58:32.113Z,17.80
2022-11-22T19:00:36.391Z,17.80
2022-11-22T19:02:38.161Z,17.80
2022-11-22T19:04:40.081Z,17.80
2022-11-22T19:06:42.345Z,17.80
2022-11-22T19:08:44.973Z,17.80
2022-11-22T19:10:55.388Z,17.80
2022-11-22T19:12:57.261Z,17.80
2022-11-22T19:14:59.123Z,17.80
2022-11-22T19:17:00.971Z,17.80
2022-11-22T19:19:02.761Z,17.80
2022-11-22T19:21:11.072Z,17.80
2022-11-22T19:23:12.892Z,17.80
2022-11-22T19:25:14.847Z,17.80
2022-11-22T19:27:17.070Z,17.80
2022-11-22T19:29:19.387Z,17.80
2022-11-22T19:31:22.335Z,17.80
2022-11-22T19:33:24.256Z,17.80
2022-11-22T19:35:28.899Z,17.80
2022-11-22T19:37:32.088Z,17.80
2022-11-22T19:39:33.965Z,17.80
2022-11-22T19:41:35.847Z,17.80
2022-11-22T19:43:37.805Z,17.80
2022-11-22T19:45:39.644Z,17.80
2022-11-22T19:47:41.392Z,17.80
2022-11-22T19:49:43.369Z,17.80
2022-11-22T19:51:45.229Z,17.80
2022-11-22T19:53:47.040Z,17.80
2022-11-22T19:55:48.787Z,17.80
2022-11-22T19:57:50.633Z,17.80
2022-11-22T19:59:55.871Z,17.80
2022-11-22T20:02:01.699Z,17.80
2022-11-22T20:04:05.068Z,17.80
2022-11-22T20:06:08.020Z,17.80
2022-11-22T20:08:09.827Z,17.80
2022-11-22T20:10:11.685Z,17.80
2022-11-22T20:12:13.430Z,17.80
2022-11-22T20:14:17.559Z,17.80
2022-11-22T20:16:20.486Z,17.80
2022-11-22T20:18:22.323Z,17.80
2022-11-22T20:20:24.042Z,17.80
2022-11-22T20:22:25.914Z,17.80
2022-11-22T20:24:27.641Z,17.80
2022-11-22T20:26:30.316Z,17.80
2022-11-22T20:28:32.189Z,17.80
2022-11-22T20:30:33.997Z,17.80
2022-11-22T20:32:35.793Z,17.80
2022-11-22T20:34:38.357Z,17.80
2022-11-22T20:36:40.080Z,17.80
2022-11-22T20:38:45.496Z,17.80
2022-11-22T20:40:47.245Z,17.80
2022-11-22T20:42:49.079Z,17.80
2022-11-22T20:44:50.826Z,17.80
2022-11-22T20:46:52.663Z,17.80
2022-11-22T20:48:58.728Z,17.80
2022-11-22T20:51:01.078Z,17.80
2022-11-22T20:53:02.798Z,17.80
2022-11-22T20:55:05.454Z,17.80
2022-11-22T20:57:07.385Z,17.80
2022-11-22T20:59:09.363Z,17.80
2022-11-22T21:01:15.738Z,17.80
2022-11-22T21:03:17.603Z,17.80
2022-11-22T21:05:19.318Z,17.80
2022-11-22T21:07:21.175Z,17.80
2022-11-22T21:09:22.956Z,17.80
2022-11-22T21:11:28.608Z,17.80
2022-11-22T21:13:30.848Z,17.80
2022-11-22T21:15:32.619Z,17.80
2022-11-22T21:17:50.117Z,17.80
2022-11-22T21:19:57.278Z,17.80
2022-11-22T21:21:58.972Z,17.80
2022-11-22T21:24:01.735Z,17.80
2022-11-22T21:26:04.435Z,17.80
2022-11-22T21:28:06.443Z,17.80
2022-11-22T21:30:08.579Z,17.80
2022-11-22T21:32:10.422Z,17.80
2022-11-22T21:34:12.205Z,17.80
2022-11-22T21:36:14.308Z,17.80
2022-11-22T21:38:16.412Z,17.80
2022-11-22T21:40:18.249Z,17.80
2022-11-22T21:42:19.972Z,17.80
2022-11-22T21:44:21.747Z,17.80
2022-11-22T21:46:23.477Z,17.80
2022-11-22T21:48:25.287Z,17.80
2022-11-22T21:50:27.035Z,17.80
2022-11-22T21:52:30.629Z,17.70
2022-11-22T21:54:32.441Z,17.80
2022-11-22T21:56:35.686Z,17.80
2022-11-22T21:58:37.463Z,17.70
2022-11-22T22:00:39.232Z,17.80
2022-11-22T22:02:40.967Z,17.70
2022-11-22T22:04:42.761Z,17.80
2022-11-22T22:06:46.277Z,17.70
2022-11-22T22:08:48.223Z,17.70
2022-11-22T22:10:50.166Z,17.70
2022-11-22T22:12:51.955Z,17.80
2022-11-22T22:14:53.703Z,17.80
2022-11-22T22:16:55.479Z,17.80
2022-11-22T22:18:57.193Z,17.80
2022-11-22T22:21:03.051Z,17.80
2022-11-22T22:23:04.762Z,17.80
2022-11-22T22:25:06.627Z,17.80
2022-11-22T22:27:08.384Z,17.80
2022-11-22T22:29:10.192Z,17.70
2022-11-22T22:31:19.179Z,17.70
2022-11-22T22:33:20.973Z,17.70
2022-11-22T22:35:22.690Z,17.70
2022-11-22T22:37:24.496Z,17.70
2022-11-22T22:39:26.267Z,17.70
2022-11-22T22:41:28.198Z,17.70
2022-11-22T22:43:31.108Z,17.80
2022-11-22T22:45:34.484Z,17.70
2022-11-22T22:47:36.247Z,17.70
2022-11-22T22:49:39.244Z,17.80
2022-11-22T22:51:41.656Z,17.70
2022-11-22T22:53:45.322Z,17.70
2022-11-22T22:55:56.138Z,17.70
2022-11-22T22:58:00.923Z,17.70
2022-11-22T23:00:03.111Z,17.70
2022-11-22T23:02:04.932Z,17.70
2022-11-22T23:04:06.687Z,17.70
2022-11-22T23:06:09.726Z,17.70
2022-11-22T23:08:11.448Z,17.70
2022-11-22T23:10:14.426Z,17.70
2022-11-22T23:12:16.112Z,17.70
2022-11-22T23:14:28.255Z,17.70
2022-11-22T23:16:30.080Z,17.70
2022-11-22T23:18:34.335Z,17.70
2022-11-22T23:20:36.042Z,17.70
2022-11-22T23:22:37.830Z,17.70
2022-11-22T23:24:39.532Z,17.70
2022-11-22T23:26:41.355Z,17.70
2022-11-22T23:28:43.111Z,17.70
2022-11-22T23:30:44.886Z,17.70
2022-11-22T23:32:46.598Z,17.70
2022-11-22T23:34:48.462Z,17.70
2022-11-22T23:36:50.187Z,17.70
2022-11-22T23:38:52.034Z,17.70
2022-11-22T23:40:53.866Z,17.70
2022-11-22T23:42:58.703Z,17.70
2022-11-22T23:45:00.413Z,17.70
2022-11-22T23:47:02.226Z,17.70
2022-11-22T23:49:04.397Z,17.70
2022-11-22T23:51:06.286Z,17.70
2022-11-22T23:53:08.181Z,17.70
2022-11-22T23:55:09.979Z,17.70
2022-11-22T23:57:11.688Z,17.70
2022-11-22T23:59:13.507Z,17.70
